D/T METAR WX W/DIR W/SPE G/SPE TEMP DEWP
20/02/20 07:20 EGMC 200720Z 20018KT 9999 FEW016 BKN018 08/07 Q1009 SSW (200°) 20.7mph 8°C 7°C
20/02/20 06:50 EGMC 200650Z 20018KT 9999 SCT017 08/07 Q1009 SSW (200°) 20.7mph 8°C 7°C
20/02/20 06:20 EGMC 200620Z 20017KT 9999 FEW018 BKN047 08/07 Q1010 SSW (200°) 19.6mph 8°C 7°C
20/02/20 05:50 EGMC 200550Z 21018KT 9999 FEW016 BKN046 09/07 Q1010 SSW (210°) 20.7mph 9°C 7°C
20/02/20 04:50 EGMC 200450Z 22013KT 9999 SCT011 BKN016 08/07 Q1011 SW (220°) 15.0mph 8°C 7°C
20/02/20 04:20 EGMC 200420Z 22019KT 7000 -SHRA FEW010 BKN017 09/07 Q1011 -SHRA SW (220°) 21.9mph 9°C 7°C
20/02/20 03:50 EGMC 200350Z 22014KT 9999 SCT016 BKN019 09/07 Q1011 SW (220°) 16.1mph 9°C 7°C
20/02/20 02:50 EGMC 200250Z 21014KT 9999 SCT017 BKN032 09/07 Q1012 SSW (210°) 16.1mph 9°C 7°C
20/02/20 02:20 EGMC 200220Z 22015KT 9999 FEW016 BKN020 09/07 Q1012 SW (220°) 17.3mph 9°C 7°C
20/02/20 01:50 EGMC 200150Z 21015KT 9999 FEW011 BKN019 09/07 Q1012 SSW (210°) 17.3mph 9°C 7°C
20/02/20 00:50 EGMC 200050Z 22017KT 9999 BKN020 09/07 Q1013 SW (220°) 19.6mph 9°C 7°C
19/02/20 23:50 EGMC 192350Z 21014KT 9999 FEW020 08/06 Q1013 SSW (210°) 16.1mph 8°C 6°C
19/02/20 23:20 EGMC 192320Z 22012KT 9999 SCT020 08/06 Q1014 SW (220°) 13.8mph 8°C 6°C
19/02/20 22:50 EGMC 192250Z 22013KT CAVOK 08/06 Q1014 SW (220°) 15.0mph 8°C 6°C
19/02/20 22:20 EGMC 192220Z 22015KT 9999 FEW025 09/06 Q1014 SW (220°) 17.3mph 9°C 6°C
19/02/20 21:50 EGMC 192150Z 22016KT 9999 FEW005 SCT027 09/07 Q1014 SW (220°) 18.4mph 9°C 7°C
19/02/20 21:20 EGMC 192120Z 22015KT 9999 FEW005 BKN030 09/07 Q1015 SW (220°) 17.3mph 9°C 7°C
19/02/20 20:50 EGMC 192050Z 22014KT 9999 FEW008 BKN017 09/07 Q1015 SW (220°) 16.1mph 9°C 7°C
19/02/20 20:20 EGMC 192020Z 22014KT 9999 BKN019 09/07 Q1015 SW (220°) 16.1mph 9°C 7°C
19/02/20 19:50 EGMC 191950Z 21015KT 9999 BKN019 09/07 Q1015 SSW (210°) 17.3mph 9°C 7°C
19/02/20 18:50 EGMC 191850Z 20012KT 9999 FEW017 SCT043 08/07 Q1016 SSW (200°) 13.8mph 8°C 7°C
19/02/20 18:20 EGMC 191820Z 20012KT 9999 FEW015 BKN037 08/07 Q1016 SSW (200°) 13.8mph 8°C 7°C
19/02/20 17:50 EGMC 191750Z 20012KT 9999 FEW010 08/07 Q1017 SSW (200°) 13.8mph 8°C 7°C
19/02/20 17:20 EGMC 191720Z 19011KT 9999 FEW010 07/06 Q1017 S (190°) 12.7mph 7°C 6°C
19/02/20 16:50 EGMC 191650Z 19011KT 9999 -RA FEW014 BKN034 07/06 Q1018 -RA S (190°) 12.7mph 7°C 6°C
19/02/20 16:20 EGMC 191620Z 20011KT 9999 -RA FEW016 BKN034 07/06 Q1018 -RA SSW (200°) 12.7mph 7°C 6°C
19/02/20 15:50 EGMC 191550Z 19009KT 9999 -RA FEW007 SCT016 07/05 Q1018 -RA S (190°) 10.4mph 7°C 5°C
19/02/20 14:50 EGMC 191450Z 20010KT 9999 FEW022 06/05 Q1019 SSW (200°) 11.5mph 6°C 5°C
19/02/20 14:20 EGMC 191420Z 21010KT 9999 -RA FEW019 06/05 Q1020 -RA SSW (210°) 11.5mph 6°C 5°C
19/02/20 13:50 EGMC 191350Z 23013KT 9999 FEW019 06/04 Q1020 SW (230°) 15.0mph 6°C 4°C
19/02/20 13:20 EGMC 191320Z 25017KT 9999 -RA SCT023 07/04 Q1021 -RA WSW (250°) 19.6mph 7°C 4°C
19/02/20 12:50 EGMC 191250Z 24016KT 9999 SCT023 07/02 Q1021 WSW (240°) 18.4mph 7°C 2°C
19/02/20 12:20 EGMC 191220Z 24012KT 9999 FEW025 SCT029 07/03 Q1021 WSW (240°) 13.8mph 7°C 3°C
19/02/20 11:50 EGMC 191150Z 25014KT 9999 FEW023 07/02 Q1021 WSW (250°) 16.1mph 7°C 2°C
19/02/20 11:20 EGMC 191120Z 24015KT 9999 FEW030 07/02 Q1021 WSW (240°) 17.3mph 7°C 2°C
19/02/20 10:50 EGMC 191050Z 24015KT CAVOK 07/02 Q1021 WSW (240°) 17.3mph 7°C 2°C
19/02/20 10:20 EGMC 191020Z 25014KT CAVOK 06/02 Q1021 WSW (250°) 16.1mph 6°C 2°C
19/02/20 09:50 EGMC 190950Z 24012KT CAVOK 05/01 Q1021 WSW (240°) 13.8mph 5°C 1°C
19/02/20 09:20 EGMC 190920Z 24012KT CAVOK 05/01 Q1021 WSW (240°) 13.8mph 5°C 1°C
19/02/20 08:50 EGMC 190850Z 24012KT CAVOK 04/01 Q1021 WSW (240°) 13.8mph 4°C 1°C
19/02/20 08:20 EGMC 190820Z 25012KT CAVOK 03/01 Q1021 WSW (250°) 13.8mph 3°C 1°C
19/02/20 07:50 EGMC 190750Z 24009KT CAVOK 02/00 Q1020 WSW (240°) 10.4mph 2°C 0°C
19/02/20 07:20 EGMC 190720Z 23008KT CAVOK 02/M00 Q1020 SW (230°) 9.2mph 2°C 0°C
19/02/20 06:50 EGMC 190650Z 23010KT CAVOK 02/M00 Q1020 SW (230°) 11.5mph 2°C 0°C
19/02/20 06:20 EGMC 190620Z 25011KT CAVOK 03/M00 Q1019 WSW (250°) 12.7mph 3°C 0°C
19/02/20 05:50 EGMC 190550Z 25009KT CAVOK 02/M00 Q1019 WSW (250°) 10.4mph 2°C 0°C
19/02/20 05:20 EGMC 190520Z 26009KT CAVOK 03/M00 Q1019 W (260°) 10.4mph 3°C 0°C
19/02/20 04:50 EGMC 190450Z 26010KT CAVOK 03/M00 Q1018 W (260°) 11.5mph 3°C 0°C